sensor_id;sensor_type;location;lat;lon;timestamp;temperature;humidity
23411;DHT22;11878;51.774;7.220;2023-03-29T00:02:15;5.70;99.90
23411;DHT22;11878;51.774;7.220;2023-03-29T00:05:19;5.70;99.90
23411;DHT22;11878;51.774;7.220;2023-03-29T00:08:26;5.60;99.90
23411;DHT22;11878;51.774;7.220;2023-03-29T00:11:28;5.60;99.90
23411;DHT22;11878;51.774;7.220;2023-03-29T00:14:30;5.60;99.90
23411;DHT22;11878;51.774;7.220;2023-03-29T00:17:32;5.70;99.90
23411;DHT22;11878;51.774;7.220;2023-03-29T00:20:34;5.70;99.90
23411;DHT22;11878;51.774;7.220;2023-03-29T00:23:35;5.60;99.90
23411;DHT22;11878;51.774;7.220;2023-03-29T00:26:37;5.60;99.90
23411;DHT22;11878;51.774;7.220;2023-03-29T00:29:39;5.60;99.90
23411;DHT22;11878;51.774;7.220;2023-03-29T00:32:41;5.50;99.90
23411;DHT22;11878;51.774;7.220;2023-03-29T00:35:43;5.60;99.90
23411;DHT22;11878;51.774;7.220;2023-03-29T00:38:45;5.50;99.90
23411;DHT22;11878;51.774;7.220;2023-03-29T00:41:48;5.50;99.90
23411;DHT22;11878;51.774;7.220;2023-03-29T00:47:57;5.50;99.90
23411;DHT22;11878;51.774;7.220;2023-03-29T00:51:05;5.50;99.90
23411;DHT22;11878;51.774;7.220;2023-03-29T00:54:13;5.60;99.90
23411;DHT22;11878;51.774;7.220;2023-03-29T00:57:17;5.60;99.90
23411;DHT22;11878;51.774;7.220;2023-03-29T01:00:25;5.60;99.90
23411;DHT22;11878;51.774;7.220;2023-03-29T01:03:39;5.70;99.90
23411;DHT22;11878;51.774;7.220;2023-03-29T01:07:00;5.70;99.90
23411;DHT22;11878;51.774;7.220;2023-03-29T01:10:12;5.70;99.90
23411;DHT22;11878;51.774;7.220;2023-03-29T01:13:34;5.70;99.90
23411;DHT22;11878;51.774;7.220;2023-03-29T01:16:40;5.70;99.90
23411;DHT22;11878;51.774;7.220;2023-03-29T01:19:46;5.70;99.90
23411;DHT22;11878;51.774;7.220;2023-03-29T01:23:01;5.60;99.90
23411;DHT22;11878;51.774;7.220;2023-03-29T01:26:21;5.70;99.90
23411;DHT22;11878;51.774;7.220;2023-03-29T01:29:33;5.60;99.90
23411;DHT22;11878;51.774;7.220;2023-03-29T01:32:49;5.60;99.90
23411;DHT22;11878;51.774;7.220;2023-03-29T01:39:00;5.50;99.90
23411;DHT22;11878;51.774;7.220;2023-03-29T01:49:20;5.40;99.90
23411;DHT22;11878;51.774;7.220;2023-03-29T01:53:28;5.50;99.90
23411;DHT22;11878;51.774;7.220;2023-03-29T01:56:15;5.50;99.90
23411;DHT22;11878;51.774;7.220;2023-03-29T01:59:25;5.50;99.90
23411;DHT22;11878;51.774;7.220;2023-03-29T02:02:30;5.40;99.90
23411;DHT22;11878;51.774;7.220;2023-03-29T02:05:33;5.50;99.90
23411;DHT22;11878;51.774;7.220;2023-03-29T02:08:38;5.30;99.90
23411;DHT22;11878;51.774;7.220;2023-03-29T02:11:42;5.30;99.90
23411;DHT22;11878;51.774;7.220;2023-03-29T02:14:45;5.30;99.90
23411;DHT22;11878;51.774;7.220;2023-03-29T02:17:48;5.50;99.90
23411;DHT22;11878;51.774;7.220;2023-03-29T02:20:51;5.60;99.90
23411;DHT22;11878;51.774;7.220;2023-03-29T02:23:57;5.40;99.90
23411;DHT22;11878;51.774;7.220;2023-03-29T02:26:59;5.40;99.90
23411;DHT22;11878;51.774;7.220;2023-03-29T02:30:03;5.60;99.90
23411;DHT22;11878;51.774;7.220;2023-03-29T02:33:14;5.60;99.90
23411;DHT22;11878;51.774;7.220;2023-03-29T02:36:47;5.60;99.90
23411;DHT22;11878;51.774;7.220;2023-03-29T02:39:51;5.70;99.90
23411;DHT22;11878;51.774;7.220;2023-03-29T02:42:55;5.70;99.90
23411;DHT22;11878;51.774;7.220;2023-03-29T02:45:58;5.70;99.90
23411;DHT22;11878;51.774;7.220;2023-03-29T02:49:01;5.60;99.90
23411;DHT22;11878;51.774;7.220;2023-03-29T02:52:09;5.70;99.90
23411;DHT22;11878;51.774;7.220;2023-03-29T02:55:15;5.70;99.90
23411;DHT22;11878;51.774;7.220;2023-03-29T02:58:17;5.70;99.90
23411;DHT22;11878;51.774;7.220;2023-03-29T03:01:19;5.70;99.90
23411;DHT22;11878;51.774;7.220;2023-03-29T03:04:23;5.70;99.90
23411;DHT22;11878;51.774;7.220;2023-03-29T03:07:27;5.80;99.90
23411;DHT22;11878;51.774;7.220;2023-03-29T03:10:29;5.70;99.90
23411;DHT22;11878;51.774;7.220;2023-03-29T03:13:31;5.70;99.90
23411;DHT22;11878;51.774;7.220;2023-03-29T03:16:33;5.70;99.90
23411;DHT22;11878;51.774;7.220;2023-03-29T03:19:35;5.70;99.90
23411;DHT22;11878;51.774;7.220;2023-03-29T03:22:45;5.80;99.90
23411;DHT22;11878;51.774;7.220;2023-03-29T03:25:49;5.70;99.90
23411;DHT22;11878;51.774;7.220;2023-03-29T03:28:54;5.70;99.90
23411;DHT22;11878;51.774;7.220;2023-03-29T03:32:22;5.80;99.90
23411;DHT22;11878;51.774;7.220;2023-03-29T03:35:24;5.80;99.90
23411;DHT22;11878;51.774;7.220;2023-03-29T03:38:26;5.80;99.90
23411;DHT22;11878;51.774;7.220;2023-03-29T03:41:32;5.90;99.90
23411;DHT22;11878;51.774;7.220;2023-03-29T03:44:34;5.80;99.90
23411;DHT22;11878;51.774;7.220;2023-03-29T03:47:55;5.80;99.90
23411;DHT22;11878;51.774;7.220;2023-03-29T03:51:14;5.80;99.90
23411;DHT22;11878;51.774;7.220;2023-03-29T03:54:16;5.80;99.90
23411;DHT22;11878;51.774;7.220;2023-03-29T03:57:47;5.80;99.90
23411;DHT22;11878;51.774;7.220;2023-03-29T04:00:52;5.80;99.90
23411;DHT22;11878;51.774;7.220;2023-03-29T04:04:10;5.80;99.90
23411;DHT22;11878;51.774;7.220;2023-03-29T04:07:15;5.90;99.90
23411;DHT22;11878;51.774;7.220;2023-03-29T04:10:18;5.90;99.90
23411;DHT22;11878;51.774;7.220;2023-03-29T04:13:37;5.90;99.90
23411;DHT22;11878;51.774;7.220;2023-03-29T04:16:55;5.80;99.90
23411;DHT22;11878;51.774;7.220;2023-03-29T04:20:18;5.80;99.90
23411;DHT22;11878;51.774;7.220;2023-03-29T04:23:20;5.80;99.90
23411;DHT22;11878;51.774;7.220;2023-03-29T04:26:23;5.80;99.90
23411;DHT22;11878;51.774;7.220;2023-03-29T04:29:30;5.90;99.90
23411;DHT22;11878;51.774;7.220;2023-03-29T04:51:13;6.20;99.90
23411;DHT22;11878;51.774;7.220;2023-03-29T04:54:18;6.30;99.90
23411;DHT22;11878;51.774;7.220;2023-03-29T05:15:25;6.40;99.90
23411;DHT22;11878;51.774;7.220;2023-03-29T05:18:27;6.30;99.90
23411;DHT22;11878;51.774;7.220;2023-03-29T05:38:58;6.40;99.90
23411;DHT22;11878;51.774;7.220;2023-03-29T05:42:01;6.40;99.90
23411;DHT22;11878;51.774;7.220;2023-03-29T06:23:44;6.70;99.90
23411;DHT22;11878;51.774;7.220;2023-03-29T06:54:00;7.10;99.90
23411;DHT22;11878;51.774;7.220;2023-03-29T07:15:09;7.50;99.90
23411;DHT22;11878;51.774;7.220;2023-03-29T07:18:32;7.60;99.90
23411;DHT22;11878;51.774;7.220;2023-03-29T07:25:11;7.70;99.90
23411;DHT22;11878;51.774;7.220;2023-03-29T07:28:13;7.70;99.90
23411;DHT22;11878;51.774;7.220;2023-03-29T07:44:51;8.20;99.90
23411;DHT22;11878;51.774;7.220;2023-03-29T07:58:08;8.30;99.90
23411;DHT22;11878;51.774;7.220;2023-03-29T08:01:10;8.30;99.90
23411;DHT22;11878;51.774;7.220;2023-03-29T08:22:13;8.80;99.90
23411;DHT22;11878;51.774;7.220;2023-03-29T08:25:33;8.90;99.90
23411;DHT22;11878;51.774;7.220;2023-03-29T08:28:36;8.90;99.90
23411;DHT22;11878;51.774;7.220;2023-03-29T08:35:10;9.10;99.90
23411;DHT22;11878;51.774;7.220;2023-03-29T08:38:20;9.00;99.90
23411;DHT22;11878;51.774;7.220;2023-03-29T09:05:32;9.10;99.90
23411;DHT22;11878;51.774;7.220;2023-03-29T10:16:39;9.30;99.90
23411;DHT22;11878;51.774;7.220;2023-03-29T10:19:54;9.30;99.90
23411;DHT22;11878;51.774;7.220;2023-03-29T10:22:58;9.30;99.90
23411;DHT22;11878;51.774;7.220;2023-03-29T10:26:06;9.30;99.90
23411;DHT22;11878;51.774;7.220;2023-03-29T10:29:10;9.40;99.90
23411;DHT22;11878;51.774;7.220;2023-03-29T10:38:55;9.70;99.90
23411;DHT22;11878;51.774;7.220;2023-03-29T10:45:34;9.90;99.90
23411;DHT22;11878;51.774;7.220;2023-03-29T11:23:03;11.60;99.90
23411;DHT22;11878;51.774;7.220;2023-03-29T11:33:15;11.60;99.90
23411;DHT22;11878;51.774;7.220;2023-03-29T12:04:25;11.90;99.90
23411;DHT22;11878;51.774;7.220;2023-03-29T12:18:00;12.40;99.90
23411;DHT22;11878;51.774;7.220;2023-03-29T12:21:08;12.90;99.90
23411;DHT22;11878;51.774;7.220;2023-03-29T12:24:14;12.90;99.90
23411;DHT22;11878;51.774;7.220;2023-03-29T13:28:42;13.30;99.90
23411;DHT22;11878;51.774;7.220;2023-03-29T13:32:20;13.50;99.90
23411;DHT22;11878;51.774;7.220;2023-03-29T13:38:48;14.00;99.90
23411;DHT22;11878;51.774;7.220;2023-03-29T13:41:52;14.60;99.90
23411;DHT22;11878;51.774;7.220;2023-03-29T13:45:14;14.90;99.90
23411;DHT22;11878;51.774;7.220;2023-03-29T13:54:58;14.70;99.90
23411;DHT22;11878;51.774;7.220;2023-03-29T13:58:31;14.60;99.90
23411;DHT22;11878;51.774;7.220;2023-03-29T14:01:48;14.40;99.90
23411;DHT22;11878;51.774;7.220;2023-03-29T14:04:51;14.40;99.90
23411;DHT22;11878;51.774;7.220;2023-03-29T14:07:54;14.60;99.90
23411;DHT22;11878;51.774;7.220;2023-03-29T14:11:01;14.30;99.90
23411;DHT22;11878;51.774;7.220;2023-03-29T14:14:04;14.30;99.90
23411;DHT22;11878;51.774;7.220;2023-03-29T14:17:20;14.50;99.90
23411;DHT22;11878;51.774;7.220;2023-03-29T14:20:22;14.40;99.90
23411;DHT22;11878;51.774;7.220;2023-03-29T14:23:31;15.40;99.90
23411;DHT22;11878;51.774;7.220;2023-03-29T14:26:37;16.30;99.90
23411;DHT22;11878;51.774;7.220;2023-03-29T14:29:44;16.00;99.90
23411;DHT22;11878;51.774;7.220;2023-03-29T14:32:55;15.90;99.90
23411;DHT22;11878;51.774;7.220;2023-03-29T14:36:00;16.30;99.90
23411;DHT22;11878;51.774;7.220;2023-03-29T14:39:10;15.70;99.90
23411;DHT22;11878;51.774;7.220;2023-03-29T14:42:19;15.20;99.90
23411;DHT22;11878;51.774;7.220;2023-03-29T14:45:22;15.10;99.90
23411;DHT22;11878;51.774;7.220;2023-03-29T14:48:26;15.20;99.90
23411;DHT22;11878;51.774;7.220;2023-03-29T14:51:28;14.80;99.90
23411;DHT22;11878;51.774;7.220;2023-03-29T14:54:32;16.30;99.90
23411;DHT22;11878;51.774;7.220;2023-03-29T14:57:44;15.80;99.90
23411;DHT22;11878;51.774;7.220;2023-03-29T15:00:50;14.50;99.90
23411;DHT22;11878;51.774;7.220;2023-03-29T15:04:00;14.20;99.90
23411;DHT22;11878;51.774;7.220;2023-03-29T15:07:03;14.70;99.90
23411;DHT22;11878;51.774;7.220;2023-03-29T15:10:07;15.20;99.90
23411;DHT22;11878;51.774;7.220;2023-03-29T15:13:17;14.90;99.90
23411;DHT22;11878;51.774;7.220;2023-03-29T15:16:21;15.30;99.90
23411;DHT22;11878;51.774;7.220;2023-03-29T15:19:24;15.10;99.90
23411;DHT22;11878;51.774;7.220;2023-03-29T15:22:31;14.80;99.90
23411;DHT22;11878;51.774;7.220;2023-03-29T15:25:36;14.80;99.90
23411;DHT22;11878;51.774;7.220;2023-03-29T15:28:53;14.80;99.90
23411;DHT22;11878;51.774;7.220;2023-03-29T15:31:57;14.60;99.90
23411;DHT22;11878;51.774;7.220;2023-03-29T15:35:02;14.80;99.90
23411;DHT22;11878;51.774;7.220;2023-03-29T15:38:05;15.50;99.90
23411;DHT22;11878;51.774;7.220;2023-03-29T15:41:08;15.40;99.90
23411;DHT22;11878;51.774;7.220;2023-03-29T15:44:15;14.60;99.90
23411;DHT22;11878;51.774;7.220;2023-03-29T15:47:20;14.40;99.90
23411;DHT22;11878;51.774;7.220;2023-03-29T15:50:23;15.40;99.90
23411;DHT22;11878;51.774;7.220;2023-03-29T15:53:25;15.00;99.90
23411;DHT22;11878;51.774;7.220;2023-03-29T15:56:29;14.20;99.90
23411;DHT22;11878;51.774;7.220;2023-03-29T15:59:34;15.80;99.90
23411;DHT22;11878;51.774;7.220;2023-03-29T16:02:37;14.60;99.90
23411;DHT22;11878;51.774;7.220;2023-03-29T16:05:41;13.50;99.90
23411;DHT22;11878;51.774;7.220;2023-03-29T16:08:46;14.30;99.90
23411;DHT22;11878;51.774;7.220;2023-03-29T16:11:49;14.60;99.90
23411;DHT22;11878;51.774;7.220;2023-03-29T16:14:52;15.20;99.90
23411;DHT22;11878;51.774;7.220;2023-03-29T16:17:54;15.70;99.90
23411;DHT22;11878;51.774;7.220;2023-03-29T16:20:57;14.30;99.90
23411;DHT22;11878;51.774;7.220;2023-03-29T16:24:00;15.60;99.90
23411;DHT22;11878;51.774;7.220;2023-03-29T16:27:02;14.50;99.90
23411;DHT22;11878;51.774;7.220;2023-03-29T16:30:05;14.10;99.90
23411;DHT22;11878;51.774;7.220;2023-03-29T16:33:07;14.20;99.90
23411;DHT22;11878;51.774;7.220;2023-03-29T16:36:10;14.70;99.90
23411;DHT22;11878;51.774;7.220;2023-03-29T16:39:14;14.10;99.90
23411;DHT22;11878;51.774;7.220;2023-03-29T16:42:19;15.10;99.90
23411;DHT22;11878;51.774;7.220;2023-03-29T16:45:21;15.70;99.90
23411;DHT22;11878;51.774;7.220;2023-03-29T16:48:24;14.10;99.90
23411;DHT22;11878;51.774;7.220;2023-03-29T16:51:30;14.50;99.90
23411;DHT22;11878;51.774;7.220;2023-03-29T16:54:40;14.10;99.90
23411;DHT22;11878;51.774;7.220;2023-03-29T16:57:44;14.10;99.90
23411;DHT22;11878;51.774;7.220;2023-03-29T17:00:50;14.30;99.90
23411;DHT22;11878;51.774;7.220;2023-03-29T17:03:55;14.40;99.90
23411;DHT22;11878;51.774;7.220;2023-03-29T17:06:58;13.30;99.90
23411;DHT22;11878;51.774;7.220;2023-03-29T17:10:03;13.80;99.90
23411;DHT22;11878;51.774;7.220;2023-03-29T17:13:07;13.70;99.90
23411;DHT22;11878;51.774;7.220;2023-03-29T17:16:10;13.70;99.90
23411;DHT22;11878;51.774;7.220;2023-03-29T17:19:15;13.20;99.90
23411;DHT22;11878;51.774;7.220;2023-03-29T17:22:17;14.30;99.90
23411;DHT22;11878;51.774;7.220;2023-03-29T17:25:19;13.80;99.90
23411;DHT22;11878;51.774;7.220;2023-03-29T17:28:23;14.80;99.90
23411;DHT22;11878;51.774;7.220;2023-03-29T17:31:25;15.50;99.90
23411;DHT22;11878;51.774;7.220;2023-03-29T17:34:27;14.30;99.90
23411;DHT22;11878;51.774;7.220;2023-03-29T17:37:29;14.30;99.90
23411;DHT22;11878;51.774;7.220;2023-03-29T17:40:32;14.40;99.90
23411;DHT22;11878;51.774;7.220;2023-03-29T17:43:42;14.30;99.90
23411;DHT22;11878;51.774;7.220;2023-03-29T17:46:44;14.50;99.90
23411;DHT22;11878;51.774;7.220;2023-03-29T17:49:46;14.40;99.90
23411;DHT22;11878;51.774;7.220;2023-03-29T17:52:51;13.90;99.90
23411;DHT22;11878;51.774;7.220;2023-03-29T17:55:53;15.00;99.90
23411;DHT22;11878;51.774;7.220;2023-03-29T17:58:56;14.80;99.90
23411;DHT22;11878;51.774;7.220;2023-03-29T18:01:58;13.70;99.90
23411;DHT22;11878;51.774;7.220;2023-03-29T18:05:04;14.80;99.90
23411;DHT22;11878;51.774;7.220;2023-03-29T18:08:07;13.40;99.90
23411;DHT22;11878;51.774;7.220;2023-03-29T18:11:21;13.40;99.90
23411;DHT22;11878;51.774;7.220;2023-03-29T18:14:23;13.00;99.90
23411;DHT22;11878;51.774;7.220;2023-03-29T18:17:25;14.20;99.90
23411;DHT22;11878;51.774;7.220;2023-03-29T18:20:28;13.30;99.90
23411;DHT22;11878;51.774;7.220;2023-03-29T18:23:30;13.20;99.90
23411;DHT22;11878;51.774;7.220;2023-03-29T18:26:34;13.30;99.90
23411;DHT22;11878;51.774;7.220;2023-03-29T18:29:37;13.40;99.90
23411;DHT22;11878;51.774;7.220;2023-03-29T18:32:39;12.90;99.90
23411;DHT22;11878;51.774;7.220;2023-03-29T18:35:43;14.60;99.90
23411;DHT22;11878;51.774;7.220;2023-03-29T18:38:49;12.80;99.90
23411;DHT22;11878;51.774;7.220;2023-03-29T18:41:54;13.20;99.90
23411;DHT22;11878;51.774;7.220;2023-03-29T18:44:57;13.90;99.90
23411;DHT22;11878;51.774;7.220;2023-03-29T18:47:59;13.20;99.90
23411;DHT22;11878;51.774;7.220;2023-03-29T18:51:05;13.90;99.90
23411;DHT22;11878;51.774;7.220;2023-03-29T18:54:08;12.90;99.90
23411;DHT22;11878;51.774;7.220;2023-03-29T18:57:10;12.80;99.90
23411;DHT22;11878;51.774;7.220;2023-03-29T19:00:14;12.80;99.90
23411;DHT22;11878;51.774;7.220;2023-03-29T19:03:22;12.90;99.90
23411;DHT22;11878;51.774;7.220;2023-03-29T19:06:24;12.90;99.90
23411;DHT22;11878;51.774;7.220;2023-03-29T19:09:26;13.20;99.90
23411;DHT22;11878;51.774;7.220;2023-03-29T19:12:29;12.40;99.90
23411;DHT22;11878;51.774;7.220;2023-03-29T19:15:31;12.60;99.90
23411;DHT22;11878;51.774;7.220;2023-03-29T19:18:35;12.80;99.90
23411;DHT22;11878;51.774;7.220;2023-03-29T19:21:37;13.80;99.90
23411;DHT22;11878;51.774;7.220;2023-03-29T19:24:39;13.60;99.90
23411;DHT22;11878;51.774;7.220;2023-03-29T19:27:41;13.10;99.90
23411;DHT22;11878;51.774;7.220;2023-03-29T19:30:47;12.90;99.90
23411;DHT22;11878;51.774;7.220;2023-03-29T19:33:51;13.30;99.90
23411;DHT22;11878;51.774;7.220;2023-03-29T19:37:09;12.70;99.90
23411;DHT22;11878;51.774;7.220;2023-03-29T19:40:12;12.80;99.90
23411;DHT22;11878;51.774;7.220;2023-03-29T19:43:14;12.90;99.90
23411;DHT22;11878;51.774;7.220;2023-03-29T19:46:17;13.00;99.90
23411;DHT22;11878;51.774;7.220;2023-03-29T19:49:19;13.00;99.90
23411;DHT22;11878;51.774;7.220;2023-03-29T19:52:21;12.90;99.90
23411;DHT22;11878;51.774;7.220;2023-03-29T19:55:24;13.00;99.90
23411;DHT22;11878;51.774;7.220;2023-03-29T19:58:27;12.90;99.90
23411;DHT22;11878;51.774;7.220;2023-03-29T20:01:31;13.00;99.90
23411;DHT22;11878;51.774;7.220;2023-03-29T20:04:33;12.90;99.90
23411;DHT22;11878;51.774;7.220;2023-03-29T20:07:38;12.90;99.90
23411;DHT22;11878;51.774;7.220;2023-03-29T20:10:40;13.70;99.90
23411;DHT22;11878;51.774;7.220;2023-03-29T20:13:44;13.20;99.90
23411;DHT22;11878;51.774;7.220;2023-03-29T20:16:46;13.40;99.90
23411;DHT22;11878;51.774;7.220;2023-03-29T20:19:50;13.00;99.90
23411;DHT22;11878;51.774;7.220;2023-03-29T20:22:54;13.00;99.90
23411;DHT22;11878;51.774;7.220;2023-03-29T20:26:06;13.00;99.90
23411;DHT22;11878;51.774;7.220;2023-03-29T20:29:08;13.20;99.90
23411;DHT22;11878;51.774;7.220;2023-03-29T20:32:10;12.90;99.90
23411;DHT22;11878;51.774;7.220;2023-03-29T20:35:12;13.20;99.90
23411;DHT22;11878;51.774;7.220;2023-03-29T20:38:14;12.70;99.90
23411;DHT22;11878;51.774;7.220;2023-03-29T20:41:16;13.00;99.90
23411;DHT22;11878;51.774;7.220;2023-03-29T20:44:32;12.50;99.90
23411;DHT22;11878;51.774;7.220;2023-03-29T20:47:36;12.20;99.90
23411;DHT22;11878;51.774;7.220;2023-03-29T20:50:44;12.20;99.90
23411;DHT22;11878;51.774;7.220;2023-03-29T20:57:26;12.20;99.90
23411;DHT22;11878;51.774;7.220;2023-03-29T21:00:32;12.60;99.90
23411;DHT22;11878;51.774;7.220;2023-03-29T21:03:35;11.50;99.90
23411;DHT22;11878;51.774;7.220;2023-03-29T21:06:38;12.80;99.90
23411;DHT22;11878;51.774;7.220;2023-03-29T21:09:40;12.60;99.90
23411;DHT22;11878;51.774;7.220;2023-03-29T21:12:42;11.80;99.90
23411;DHT22;11878;51.774;7.220;2023-03-29T21:15:45;11.70;99.90
23411;DHT22;11878;51.774;7.220;2023-03-29T21:18:47;12.50;99.90
23411;DHT22;11878;51.774;7.220;2023-03-29T21:21:49;11.60;99.90
23411;DHT22;11878;51.774;7.220;2023-03-29T21:24:52;11.30;99.90
23411;DHT22;11878;51.774;7.220;2023-03-29T21:27:54;11.30;99.90
23411;DHT22;11878;51.774;7.220;2023-03-29T21:30:56;11.60;99.90
23411;DHT22;11878;51.774;7.220;2023-03-29T21:33:58;11.10;99.90
23411;DHT22;11878;51.774;7.220;2023-03-29T21:37:00;11.20;99.90
23411;DHT22;11878;51.774;7.220;2023-03-29T21:40:04;11.90;99.90
23411;DHT22;11878;51.774;7.220;2023-03-29T21:43:07;11.00;99.90
23411;DHT22;11878;51.774;7.220;2023-03-29T21:46:09;11.80;99.90
23411;DHT22;11878;51.774;7.220;2023-03-29T21:49:11;11.10;99.90
23411;DHT22;11878;51.774;7.220;2023-03-29T21:52:13;12.00;99.90
23411;DHT22;11878;51.774;7.220;2023-03-29T21:55:15;11.10;99.90
23411;DHT22;11878;51.774;7.220;2023-03-29T21:58:17;11.10;99.90
23411;DHT22;11878;51.774;7.220;2023-03-29T22:01:19;11.00;99.90
23411;DHT22;11878;51.774;7.220;2023-03-29T22:04:21;10.90;99.90
23411;DHT22;11878;51.774;7.220;2023-03-29T22:07:37;10.80;99.90
23411;DHT22;11878;51.774;7.220;2023-03-29T22:10:39;10.80;99.90
23411;DHT22;11878;51.774;7.220;2023-03-29T22:13:44;10.60;99.90
23411;DHT22;11878;51.774;7.220;2023-03-29T22:16:45;10.60;99.90
23411;DHT22;11878;51.774;7.220;2023-03-29T22:19:47;10.60;99.90
23411;DHT22;11878;51.774;7.220;2023-03-29T22:22:50;10.50;99.90
23411;DHT22;11878;51.774;7.220;2023-03-29T22:25:51;10.50;99.90
23411;DHT22;11878;51.774;7.220;2023-03-29T22:28:53;10.50;99.90
23411;DHT22;11878;51.774;7.220;2023-03-29T22:31:56;10.40;99.90
23411;DHT22;11878;51.774;7.220;2023-03-29T22:34:57;10.40;99.90
23411;DHT22;11878;51.774;7.220;2023-03-29T22:37:59;10.40;99.90
23411;DHT22;11878;51.774;7.220;2023-03-29T22:41:01;10.40;99.90
23411;DHT22;11878;51.774;7.220;2023-03-29T22:44:03;10.30;99.90
23411;DHT22;11878;51.774;7.220;2023-03-29T22:47:05;10.30;99.90
23411;DHT22;11878;51.774;7.220;2023-03-29T22:50:08;10.30;99.90
23411;DHT22;11878;51.774;7.220;2023-03-29T22:53:10;10.20;99.90
23411;DHT22;11878;51.774;7.220;2023-03-29T22:56:12;10.00;99.90
23411;DHT22;11878;51.774;7.220;2023-03-29T22:59:14;10.10;99.90
23411;DHT22;11878;51.774;7.220;2023-03-29T23:02:16;10.00;99.90
23411;DHT22;11878;51.774;7.220;2023-03-29T23:05:18;9.90;99.90
23411;DHT22;11878;51.774;7.220;2023-03-29T23:08:21;9.90;99.90
23411;DHT22;11878;51.774;7.220;2023-03-29T23:11:23;9.90;99.90
23411;DHT22;11878;51.774;7.220;2023-03-29T23:14:24;9.90;99.90
23411;DHT22;11878;51.774;7.220;2023-03-29T23:17:26;9.90;99.90
23411;DHT22;11878;51.774;7.220;2023-03-29T23:20:28;9.90;99.90
23411;DHT22;11878;51.774;7.220;2023-03-29T23:23:30;9.80;99.90
23411;DHT22;11878;51.774;7.220;2023-03-29T23:26:32;9.90;99.90
23411;DHT22;11878;51.774;7.220;2023-03-29T23:29:36;9.80;99.90
23411;DHT22;11878;51.774;7.220;2023-03-29T23:32:38;9.80;99.90
23411;DHT22;11878;51.774;7.220;2023-03-29T23:35:40;9.70;99.90
23411;DHT22;11878;51.774;7.220;2023-03-29T23:38:45;9.80;99.90
23411;DHT22;11878;51.774;7.220;2023-03-29T23:41:47;9.70;99.90
23411;DHT22;11878;51.774;7.220;2023-03-29T23:44:49;9.90;99.90
23411;DHT22;11878;51.774;7.220;2023-03-29T23:47:51;9.80;99.90
23411;DHT22;11878;51.774;7.220;2023-03-29T23:50:54;9.80;99.90
23411;DHT22;11878;51.774;7.220;2023-03-29T23:53:59;9.90;99.90
23411;DHT22;11878;51.774;7.220;2023-03-29T23:57:01;9.90;99.90
